createdAt,value
2018-08-28T00:02:13.307Z,71.60
2018-08-28T00:04:42.728Z,71.60
2018-08-28T00:07:11.825Z,71.30
2018-08-28T00:09:41.118Z,71.70
2018-08-28T00:12:10.126Z,71.90
2018-08-28T00:14:39.439Z,71.50
2018-08-28T00:17:08.600Z,71.60
2018-08-28T00:19:37.667Z,71.60
2018-08-28T00:22:06.713Z,71.60
2018-08-28T00:24:35.800Z,71.40
2018-08-28T00:27:04.938Z,72.10
2018-08-28T00:29:33.947Z,72.00
2018-08-28T00:32:03.257Z,72.30
2018-08-28T00:34:33.531Z,71.90
2018-08-28T00:37:02.505Z,71.60
2018-08-28T00:39:31.895Z,71.80
2018-08-28T00:42:00.909Z,71.80
2018-08-28T00:44:30.270Z,71.70
2018-08-28T00:46:59.812Z,72.10
2018-08-28T00:49:29.224Z,71.70
2018-08-28T00:51:58.259Z,71.50
2018-08-28T00:54:27.417Z,71.50
2018-08-28T00:56:56.571Z,71.60
2018-08-28T00:59:25.723Z,71.90
2018-08-28T01:01:55.011Z,72.00
2018-08-28T01:04:24.433Z,72.80
2018-08-28T01:06:53.589Z,73.00
2018-08-28T01:09:22.938Z,72.80
2018-08-28T01:11:52.185Z,72.60
2018-08-28T01:14:21.178Z,72.70
2018-08-28T01:16:50.710Z,73.00
2018-08-28T01:19:19.744Z,72.90
2018-08-28T01:21:48.664Z,73.10
2018-08-28T01:24:17.863Z,73.40
2018-08-28T01:26:47.018Z,73.30
2018-08-28T01:29:16.215Z,74.10
2018-08-28T01:31:45.401Z,74.20
2018-08-28T01:34:14.595Z,74.20
2018-08-28T01:36:43.903Z,74.30
2018-08-28T01:39:12.996Z,74.70
2018-08-28T01:41:42.251Z,75.30
2018-08-28T01:44:11.490Z,75.80
2018-08-28T01:46:40.803Z,76.20
2018-08-28T01:49:09.835Z,76.20
2018-08-28T01:51:39.046Z,77.30
2018-08-28T01:54:08.176Z,78.00
2018-08-28T01:56:37.367Z,77.60
2018-08-28T01:59:06.433Z,77.70
2018-08-28T02:01:35.730Z,78.40
2018-08-28T02:04:04.691Z,78.60
2018-08-28T02:06:34.032Z,79.70
2018-08-28T02:09:03.810Z,80.20
2018-08-28T02:11:32.930Z,79.90
2018-08-28T02:14:02.241Z,82.70
2018-08-28T02:16:31.443Z,82.60
2018-08-28T02:19:00.951Z,82.30
2018-08-28T02:21:30.029Z,82.60
2018-08-28T02:23:59.123Z,83.30
2018-08-28T02:26:28.787Z,83.40
2018-08-28T02:28:58.056Z,84.60
2018-08-28T02:31:27.321Z,84.40
2018-08-28T02:33:56.303Z,86.10
2018-08-28T02:36:25.418Z,86.00
2018-08-28T02:38:54.623Z,86.70
2018-08-28T02:41:23.545Z,87.10
2018-08-28T02:43:52.530Z,88.30
2018-08-28T02:46:21.748Z,88.50
2018-08-28T02:48:50.871Z,89.30
2018-08-28T02:51:19.827Z,89.80
2018-08-28T02:53:49.758Z,90.00
2018-08-28T02:56:19.106Z,90.30
2018-08-28T02:58:48.307Z,90.50
2018-08-28T03:01:17.439Z,90.20
2018-08-28T03:03:46.672Z,91.00
2018-08-28T03:06:16.075Z,91.40
2018-08-28T03:08:45.666Z,91.60
2018-08-28T03:11:14.727Z,91.10
2018-08-28T03:13:44.196Z,92.00
2018-08-28T03:16:13.630Z,92.30
2018-08-28T03:18:42.727Z,92.50
2018-08-28T03:21:11.878Z,92.90
2018-08-28T03:23:41.123Z,93.50
2018-08-28T03:26:10.315Z,93.60
2018-08-28T03:28:39.447Z,94.00
2018-08-28T03:31:08.462Z,94.00
2018-08-28T03:33:37.694Z,94.50
2018-08-28T03:36:07.236Z,94.80
2018-08-28T03:38:36.584Z,95.00
2018-08-28T03:41:05.799Z,95.00
2018-08-28T03:43:34.909Z,95.10
2018-08-28T03:46:03.832Z,95.30
2018-08-28T03:48:33.187Z,95.90
2018-08-28T03:51:02.372Z,96.20
2018-08-28T03:53:31.734Z,96.30
2018-08-28T03:56:01.131Z,96.50
2018-08-28T03:58:30.019Z,97.10
2018-08-28T04:00:59.173Z,96.60
2018-08-28T04:03:28.545Z,96.20
2018-08-28T04:05:58.036Z,96.90
2018-08-28T04:08:27.548Z,95.60
2018-08-28T04:10:56.522Z,96.20
2018-08-28T04:13:25.560Z,96.10
2018-08-28T04:15:54.553Z,96.40
2018-08-28T04:18:23.590Z,95.90
2018-08-28T04:20:52.759Z,96.60
2018-08-28T04:23:22.474Z,96.80
2018-08-28T04:25:51.758Z,97.10
2018-08-28T04:28:20.652Z,96.50
2018-08-28T04:30:49.783Z,96.60
2018-08-28T04:33:18.815Z,97.10
2018-08-28T04:35:48.153Z,96.70
2018-08-28T04:38:17.639Z,96.70
2018-08-28T04:40:46.775Z,96.80
2018-08-28T04:43:15.920Z,96.80
2018-08-28T04:45:45.003Z,96.50
2018-08-28T04:48:13.947Z,96.90
2018-08-28T04:50:43.044Z,96.70
2018-08-28T04:53:12.512Z,96.50
2018-08-28T04:55:41.867Z,97.30
2018-08-28T04:58:10.903Z,96.70
2018-08-28T05:00:39.954Z,96.90
2018-08-28T05:03:09.466Z,96.80
2018-08-28T05:05:38.497Z,97.40
2018-08-28T05:08:07.937Z,97.10
2018-08-28T05:10:37.165Z,96.70
2018-08-28T05:13:06.397Z,96.80
2018-08-28T05:15:35.394Z,96.90
2018-08-28T05:18:04.863Z,96.60
2018-08-28T05:20:33.919Z,97.10
2018-08-28T05:23:03.169Z,97.00
2018-08-28T05:25:32.272Z,97.00
2018-08-28T05:28:01.906Z,97.30
2018-08-28T05:30:31.571Z,97.50
2018-08-28T05:33:00.919Z,97.70
2018-08-28T05:35:30.740Z,96.70
2018-08-28T05:37:59.734Z,97.40
2018-08-28T05:40:28.900Z,97.60
2018-08-28T05:42:57.991Z,97.80
2018-08-28T05:45:27.387Z,98.20
2018-08-28T05:47:56.792Z,98.30
2018-08-28T05:50:26.090Z,98.70
2018-08-28T05:52:55.305Z,98.80
2018-08-28T05:55:24.576Z,98.80
2018-08-28T05:57:53.785Z,98.60
2018-08-28T06:00:22.916Z,98.50
2018-08-28T06:02:52.178Z,98.20
2018-08-28T06:05:21.879Z,97.90
2018-08-28T06:07:50.922Z,97.80
2018-08-28T06:10:20.001Z,98.10
2018-08-28T06:12:49.262Z,98.30
2018-08-28T06:15:18.515Z,98.20
2018-08-28T06:17:47.909Z,98.30
2018-08-28T06:20:16.979Z,98.40
2018-08-28T06:22:46.041Z,98.30
2018-08-28T06:25:15.197Z,98.50
2018-08-28T06:27:44.067Z,98.10
2018-08-28T06:30:13.833Z,98.50
2018-08-28T06:32:43.078Z,98.40
2018-08-28T06:35:12.263Z,97.80
2018-08-28T06:37:41.661Z,98.00
2018-08-28T06:40:10.683Z,97.90
2018-08-28T06:42:39.885Z,97.60
2018-08-28T06:45:09.515Z,97.30
2018-08-28T06:47:38.790Z,97.00
2018-08-28T06:50:09.762Z,97.00
2018-08-28T06:52:39.143Z,96.50
2018-08-28T06:55:08.329Z,95.10
2018-08-28T06:57:38.083Z,94.60
2018-08-28T07:00:07.867Z,93.80
2018-08-28T07:02:37.717Z,93.50
2018-08-28T07:05:07.191Z,93.60
2018-08-28T07:07:36.490Z,92.80
2018-08-28T07:10:05.650Z,92.70
2018-08-28T07:12:34.735Z,92.60
2018-08-28T07:15:04.048Z,92.70
2018-08-28T07:17:33.592Z,92.80
2018-08-28T07:20:02.482Z,92.60
2018-08-28T07:22:31.719Z,92.90
2018-08-28T07:25:00.765Z,92.30
2018-08-28T07:27:30.051Z,91.90
2018-08-28T07:29:59.271Z,91.70
2018-08-28T07:32:28.694Z,91.60
2018-08-28T07:34:57.788Z,91.10
2018-08-28T07:37:26.715Z,90.60
2018-08-28T07:39:55.735Z,90.00
2018-08-28T07:42:24.749Z,89.80
2018-08-28T07:44:53.815Z,89.30
2018-08-28T07:47:23.021Z,89.00
2018-08-28T07:49:52.326Z,87.20
2018-08-28T07:52:21.311Z,86.60
2018-08-28T07:54:50.291Z,86.20
2018-08-28T07:57:19.393Z,85.40
2018-08-28T07:59:49.223Z,85.60
2018-08-28T08:02:18.519Z,86.20
2018-08-28T08:04:47.608Z,86.10
2018-08-28T08:07:16.785Z,85.60
2018-08-28T08:09:45.718Z,85.30
2018-08-28T08:12:15.117Z,84.20
2018-08-28T08:14:44.103Z,84.40
2018-08-28T08:17:13.514Z,84.00
2018-08-28T08:19:42.763Z,83.20
2018-08-28T08:22:12.092Z,81.00
2018-08-28T08:24:41.140Z,80.30
2018-08-28T08:27:10.295Z,81.20
2018-08-28T08:29:39.313Z,80.50
2018-08-28T08:32:08.494Z,80.60
2018-08-28T08:34:37.904Z,80.50
2018-08-28T08:37:06.991Z,79.90
2018-08-28T08:39:35.951Z,79.50
2018-08-28T08:42:05.352Z,78.00
2018-08-28T08:44:34.987Z,75.90
2018-08-28T08:47:04.178Z,73.60
2018-08-28T08:49:33.371Z,70.20
2018-08-28T08:52:02.772Z,70.90
2018-08-28T08:54:32.315Z,67.90
2018-08-28T08:57:01.276Z,65.90
2018-08-28T08:59:30.295Z,65.10
2018-08-28T09:02:00.131Z,65.20
2018-08-28T09:04:29.150Z,66.60
2018-08-28T09:06:58.573Z,67.70
2018-08-28T09:09:28.131Z,68.10
2018-08-28T09:11:57.443Z,68.10
2018-08-28T09:14:26.868Z,69.00
2018-08-28T09:16:56.267Z,69.40
2018-08-28T09:19:25.276Z,64.60
2018-08-28T09:21:54.291Z,63.90
2018-08-28T09:24:23.509Z,64.10
2018-08-28T09:26:52.829Z,64.50
2018-08-28T09:29:21.986Z,63.30
2018-08-28T09:31:51.251Z,64.00
2018-08-28T09:34:20.535Z,58.00
2018-08-28T09:36:49.588Z,53.20
2018-08-28T09:39:18.847Z,50.50
2018-08-28T09:41:47.871Z,46.40
2018-08-28T09:44:17.084Z,48.50
2018-08-28T09:46:46.727Z,46.30
2018-08-28T09:49:15.751Z,45.60
2018-08-28T09:51:44.768Z,47.30
2018-08-28T09:54:14.079Z,44.80
2018-08-28T09:56:43.299Z,41.80
2018-08-28T09:59:12.318Z,43.30
2018-08-28T10:01:44.700Z,44.80
2018-08-28T10:04:14.483Z,43.10
2018-08-28T10:06:43.675Z,43.20
2018-08-28T10:09:15.846Z,40.50
2018-08-28T10:11:45.227Z,42.70
2018-08-28T10:14:14.335Z,40.50
2018-08-28T10:16:43.678Z,38.90
2018-08-28T10:19:12.883Z,37.70
2018-08-28T10:21:42.193Z,40.70
2018-08-28T10:24:12.386Z,42.80
2018-08-28T10:26:41.312Z,45.20
2018-08-28T10:29:10.414Z,47.30
2018-08-28T10:31:39.714Z,44.50
2018-08-28T10:34:08.624Z,44.60
2018-08-28T10:36:38.034Z,44.00
2018-08-28T10:39:08.704Z,45.40
2018-08-28T10:41:39.528Z,47.80
2018-08-28T10:44:08.879Z,49.50
2018-08-28T10:46:38.323Z,51.60
2018-08-28T10:49:07.283Z,53.40
2018-08-28T10:51:36.427Z,54.90
2018-08-28T10:54:05.841Z,56.20
2018-08-28T10:56:34.884Z,55.80
2018-08-28T10:59:03.938Z,50.80
2018-08-28T11:01:33.163Z,47.80
2018-08-28T11:04:02.046Z,44.60
2018-08-28T11:06:31.233Z,45.90
2018-08-28T11:09:00.447Z,47.80
2018-08-28T11:11:29.430Z,49.30
2018-08-28T11:13:58.663Z,51.40
2018-08-28T11:16:27.896Z,54.20
2018-08-28T11:18:57.219Z,55.70
2018-08-28T11:21:26.607Z,57.90
2018-08-28T11:23:55.666Z,59.20
2018-08-28T11:26:25.026Z,59.60
2018-08-28T11:28:54.260Z,61.10
2018-08-28T11:31:23.583Z,61.50
2018-08-28T11:33:53.117Z,62.40
2018-08-28T11:36:22.375Z,63.60
2018-08-28T11:38:51.620Z,64.70
2018-08-28T11:41:20.735Z,64.30
2018-08-28T11:43:49.769Z,64.90
2018-08-28T11:46:19.054Z,65.70
2018-08-28T11:48:48.221Z,65.40
2018-08-28T11:51:17.539Z,66.00
2018-08-28T11:53:46.523Z,66.30
2018-08-28T11:56:15.547Z,67.20
2018-08-28T11:58:44.576Z,67.20
2018-08-28T12:01:13.623Z,67.40
2018-08-28T12:03:42.653Z,67.30
2018-08-28T12:06:11.867Z,67.50
2018-08-28T12:08:40.935Z,67.50
2018-08-28T12:11:10.684Z,67.50
2018-08-28T12:13:40.028Z,68.30
2018-08-28T12:16:09.153Z,67.30
2018-08-28T12:18:38.705Z,68.10
2018-08-28T12:21:07.736Z,68.70
2018-08-28T12:23:36.784Z,69.70
2018-08-28T12:26:06.083Z,70.00
2018-08-28T12:28:35.315Z,70.40
2018-08-28T12:31:04.728Z,70.90
2018-08-28T12:33:33.967Z,69.30
2018-08-28T12:36:03.230Z,69.60
2018-08-28T12:38:32.162Z,69.20
2018-08-28T12:41:01.155Z,68.90
2018-08-28T12:43:30.479Z,69.30
2018-08-28T12:45:59.559Z,69.50
2018-08-28T12:48:28.747Z,70.10
2018-08-28T12:50:58.047Z,69.80
2018-08-28T12:53:27.378Z,70.40
2018-08-28T12:55:56.504Z,69.70
2018-08-28T12:58:26.023Z,70.50
2018-08-28T13:00:54.908Z,70.30
2018-08-28T13:03:24.084Z,69.90
2018-08-28T13:05:53.665Z,67.90
2018-08-28T13:08:23.227Z,67.90
2018-08-28T13:10:52.521Z,69.30
2018-08-28T13:13:21.756Z,69.30
2018-08-28T13:15:50.983Z,69.80
2018-08-28T13:18:20.050Z,68.90
2018-08-28T13:20:49.393Z,66.70
2018-08-28T13:23:18.451Z,64.50
2018-08-28T13:25:47.593Z,65.20
2018-08-28T13:28:17.193Z,65.30
2018-08-28T13:30:47.323Z,65.40
2018-08-28T13:33:16.466Z,65.00
2018-08-28T13:35:45.619Z,63.90
2018-08-28T13:38:14.749Z,63.90
2018-08-28T13:40:44.042Z,61.30
2018-08-28T13:43:13.355Z,61.20
2018-08-28T13:45:42.438Z,60.70
2018-08-28T13:48:11.811Z,60.60
2018-08-28T13:50:40.978Z,61.20
2018-08-28T13:53:10.379Z,61.60
2018-08-28T13:55:39.554Z,62.40
2018-08-28T13:58:08.687Z,63.00
2018-08-28T14:00:37.962Z,63.50
2018-08-28T14:03:08.519Z,63.50
2018-08-28T14:05:37.852Z,63.90
2018-08-28T14:08:07.083Z,62.40
2018-08-28T14:10:36.067Z,63.30
2018-08-28T14:13:05.136Z,63.80
2018-08-28T14:15:34.365Z,63.50
2018-08-28T14:18:03.316Z,63.30
2018-08-28T14:20:32.428Z,64.50
2018-08-28T14:23:07.435Z,64.10
2018-08-28T14:25:38.452Z,63.60
2018-08-28T14:28:07.935Z,63.80
2018-08-28T14:30:37.213Z,64.20
2018-08-28T14:33:06.343Z,64.70
2018-08-28T14:35:35.432Z,64.40
2018-08-28T14:38:05.496Z,64.60
2018-08-28T14:40:34.690Z,65.20
2018-08-28T14:43:05.027Z,65.00
2018-08-28T14:45:34.179Z,65.40
2018-08-28T14:48:05.069Z,64.20
2018-08-28T14:50:34.674Z,63.90
2018-08-28T14:53:03.711Z,63.70
2018-08-28T14:55:32.718Z,64.50
2018-08-28T14:58:02.017Z,64.90
2018-08-28T15:00:31.461Z,64.00
2018-08-28T15:03:01.927Z,64.10
2018-08-28T15:05:32.519Z,64.40
2018-08-28T15:08:01.532Z,64.60
2018-08-28T15:10:30.740Z,63.90
2018-08-28T15:13:00.335Z,64.30
2018-08-28T15:15:29.438Z,64.60
2018-08-28T15:17:59.948Z,63.90
2018-08-28T15:20:30.164Z,64.00
2018-08-28T15:22:59.582Z,64.20
2018-08-28T15:25:28.664Z,64.20
2018-08-28T15:27:57.936Z,65.00
2018-08-28T15:30:27.333Z,64.60
2018-08-28T15:33:00.420Z,64.90
2018-08-28T15:35:29.547Z,65.10
2018-08-28T15:37:59.263Z,65.30
2018-08-28T15:40:28.668Z,66.50
2018-08-28T15:42:57.766Z,66.30
2018-08-28T15:45:27.327Z,69.00
2018-08-28T15:47:56.559Z,67.90
2018-08-28T15:50:25.899Z,68.00
2018-08-28T15:52:55.223Z,69.10
2018-08-28T15:55:24.284Z,68.50
2018-08-28T15:57:53.468Z,69.10
2018-08-28T16:00:22.485Z,69.70
2018-08-28T16:02:51.791Z,70.00
2018-08-28T16:05:20.924Z,70.40
2018-08-28T16:07:50.123Z,70.40
2018-08-28T16:10:19.129Z,71.80
2018-08-28T16:12:48.432Z,71.50
2018-08-28T16:15:17.763Z,72.50
2018-08-28T16:17:47.926Z,74.00
2018-08-28T16:20:17.463Z,73.70
2018-08-28T16:22:54.965Z,74.60
2018-08-28T16:25:24.047Z,73.00
2018-08-28T16:27:53.199Z,73.10
2018-08-28T16:30:22.831Z,75.30
2018-08-28T16:32:52.630Z,73.90
2018-08-28T16:35:23.139Z,72.90
2018-08-28T16:37:52.469Z,72.50
2018-08-28T16:40:21.863Z,75.00
2018-08-28T16:42:52.176Z,76.10
2018-08-28T16:45:21.691Z,76.90
2018-08-28T16:47:50.862Z,77.30
2018-08-28T16:50:19.942Z,77.30
2018-08-28T16:52:49.395Z,77.00
2018-08-28T16:55:18.491Z,77.20
2018-08-28T16:57:48.276Z,77.50
2018-08-28T17:00:17.470Z,77.70
2018-08-28T17:02:46.659Z,78.30
2018-08-28T17:05:15.655Z,78.50
2018-08-28T17:07:45.738Z,78.50
2018-08-28T17:10:15.109Z,78.90
2018-08-28T17:12:45.536Z,78.90
2018-08-28T17:15:15.247Z,79.70
2018-08-28T17:17:44.658Z,79.10
2018-08-28T17:20:13.895Z,80.50
2018-08-28T17:22:43.043Z,80.50
2018-08-28T17:25:12.739Z,80.20
2018-08-28T17:27:42.857Z,80.50
2018-08-28T17:30:12.191Z,81.50
2018-08-28T17:32:41.581Z,81.90
2018-08-28T17:35:11.311Z,81.60
2018-08-28T17:37:40.315Z,82.10
2018-08-28T17:40:09.299Z,82.20
2018-08-28T17:42:38.537Z,82.50
2018-08-28T17:45:07.823Z,81.70
2018-08-28T17:47:37.188Z,82.20
2018-08-28T17:50:06.725Z,83.10
2018-08-28T17:52:35.849Z,83.50
2018-08-28T17:55:05.011Z,82.50
2018-08-28T17:57:34.052Z,82.50
2018-08-28T18:00:03.179Z,82.80
2018-08-28T18:02:32.377Z,82.80
2018-08-28T18:05:01.493Z,83.50
2018-08-28T18:07:30.648Z,83.30
2018-08-28T18:09:59.720Z,82.60
2018-08-28T18:12:29.103Z,81.60
2018-08-28T18:14:58.403Z,83.40
2018-08-28T18:17:27.571Z,83.10
2018-08-28T18:19:56.587Z,84.30
2018-08-28T18:22:25.830Z,84.00
2018-08-28T18:24:54.922Z,84.50
2018-08-28T18:27:24.143Z,84.30
2018-08-28T18:29:53.432Z,84.40
2018-08-28T18:32:22.496Z,84.50
2018-08-28T18:34:51.805Z,84.50
2018-08-28T18:37:20.894Z,85.20
2018-08-28T18:39:50.275Z,85.60
2018-08-28T18:42:19.343Z,85.80
2018-08-28T18:44:48.795Z,85.30
2018-08-28T18:47:18.517Z,86.00
2018-08-28T18:49:47.545Z,86.60
2018-08-28T18:52:16.560Z,86.90
2018-08-28T18:54:45.961Z,87.40
2018-08-28T18:57:15.285Z,87.80
2018-08-28T18:59:45.260Z,88.10
2018-08-28T19:02:14.381Z,88.20
2018-08-28T19:04:43.426Z,88.80
2018-08-28T19:07:12.758Z,89.40
2018-08-28T19:09:42.085Z,89.50
2018-08-28T19:12:11.258Z,89.60
2018-08-28T19:14:40.759Z,89.90
2018-08-28T19:17:10.188Z,89.90
2018-08-28T19:19:39.528Z,90.00
2018-08-28T19:22:09.254Z,90.20
2018-08-28T19:24:39.023Z,90.40
2018-08-28T19:27:09.245Z,90.60
2018-08-28T19:29:38.941Z,90.70
2018-08-28T19:32:08.268Z,90.90
2018-08-28T19:34:37.858Z,91.10
2018-08-28T19:37:07.065Z,91.10
2018-08-28T19:39:36.738Z,91.30
2018-08-28T19:42:05.816Z,91.50
2018-08-28T19:44:36.034Z,91.60
2018-08-28T19:47:05.822Z,91.60
2018-08-28T19:49:35.286Z,91.70
2018-08-28T19:52:04.545Z,91.80
2018-08-28T19:54:35.098Z,91.80
2018-08-28T19:57:05.227Z,91.90
2018-08-28T19:59:34.922Z,91.80
2018-08-28T20:02:04.623Z,91.70
2018-08-28T20:04:34.008Z,92.00
2018-08-28T20:07:03.196Z,92.10
2018-08-28T20:09:33.213Z,92.00
2018-08-28T20:12:02.539Z,92.40
2018-08-28T20:14:32.114Z,92.50
2018-08-28T20:17:01.238Z,91.80
2018-08-28T20:19:30.998Z,91.80
2018-08-28T20:22:00.443Z,91.60
2018-08-28T20:24:29.922Z,91.60
2018-08-28T20:26:59.233Z,91.70
2018-08-28T20:29:28.462Z,92.10
2018-08-28T20:31:57.866Z,92.10
2018-08-28T20:34:27.210Z,92.30
2018-08-28T20:36:56.649Z,92.30
2018-08-28T20:39:25.922Z,92.30
2018-08-28T20:41:55.517Z,92.40
2018-08-28T20:44:24.979Z,92.50
2018-08-28T20:46:54.068Z,92.90
2018-08-28T20:49:23.243Z,92.50
2018-08-28T20:51:52.640Z,92.50
2018-08-28T20:54:22.383Z,92.70
2018-08-28T20:56:51.773Z,92.70
2018-08-28T20:59:22.014Z,92.60
2018-08-28T21:01:51.277Z,92.60
2018-08-28T21:04:20.675Z,92.50
2018-08-28T21:06:49.979Z,92.50
2018-08-28T21:09:18.964Z,92.50
2018-08-28T21:11:48.182Z,92.60
2018-08-28T21:14:17.280Z,92.50
2018-08-28T21:16:46.425Z,92.50
2018-08-28T21:19:15.651Z,92.50
2018-08-28T21:21:45.003Z,92.40
2018-08-28T21:24:14.291Z,92.50
2018-08-28T21:26:43.662Z,92.60
2018-08-28T21:29:12.739Z,92.80
2018-08-28T21:31:42.015Z,93.00
2018-08-28T21:34:11.323Z,92.90
2018-08-28T21:36:40.664Z,93.10
2018-08-28T21:39:09.910Z,93.00
2018-08-28T21:41:39.075Z,92.70
2018-08-28T21:44:08.570Z,92.80
2018-08-28T21:46:37.799Z,92.90
2018-08-28T21:49:07.917Z,93.10
2018-08-28T21:51:37.186Z,93.20
2018-08-28T21:54:06.351Z,93.70
2018-08-28T21:56:35.500Z,93.00
2018-08-28T21:59:04.720Z,92.90
2018-08-28T22:01:34.083Z,93.00
2018-08-28T22:04:03.547Z,92.90
2018-08-28T22:06:38.119Z,93.00
2018-08-28T22:09:07.310Z,92.70
2018-08-28T22:11:36.591Z,92.90
2018-08-28T22:14:06.459Z,93.30
2018-08-28T22:16:35.438Z,93.70
2018-08-28T22:19:04.534Z,93.50
2018-08-28T22:21:33.619Z,93.60
2018-08-28T22:24:02.760Z,93.50
2018-08-28T22:26:32.151Z,93.60
2018-08-28T22:29:01.190Z,93.30
2018-08-28T22:31:30.399Z,93.10
2018-08-28T22:33:59.624Z,93.10
2018-08-28T22:36:29.078Z,93.00
2018-08-28T22:38:58.429Z,92.90
2018-08-28T22:41:27.679Z,93.00
2018-08-28T22:43:56.932Z,93.10
2018-08-28T22:46:26.279Z,93.30
2018-08-28T22:48:55.564Z,93.20
2018-08-28T22:51:24.485Z,93.10
2018-08-28T22:53:53.546Z,93.20
2018-08-28T22:56:22.827Z,93.50
2018-08-28T22:58:51.899Z,93.50
2018-08-28T23:01:21.296Z,93.40
2018-08-28T23:03:50.371Z,93.50
2018-08-28T23:06:20.052Z,93.30
2018-08-28T23:08:48.943Z,92.60
2018-08-28T23:11:18.320Z,92.80
2018-08-28T23:13:47.287Z,92.40
2018-08-28T23:16:16.519Z,92.40
2018-08-28T23:18:45.531Z,92.30
2018-08-28T23:21:14.627Z,91.90
2018-08-28T23:23:43.518Z,91.40
2018-08-28T23:26:12.899Z,91.00
2018-08-28T23:28:41.979Z,90.80
2018-08-28T23:31:11.144Z,90.70
2018-08-28T23:33:40.111Z,90.50
2018-08-28T23:36:09.565Z,90.50
2018-08-28T23:38:38.771Z,90.60
2018-08-28T23:41:07.756Z,90.60
2018-08-28T23:43:37.134Z,90.50
2018-08-28T23:46:06.441Z,90.30
2018-08-28T23:48:35.475Z,90.40
2018-08-28T23:51:04.807Z,90.40
2018-08-28T23:53:33.941Z,90.60
2018-08-28T23:56:03.204Z,91.30
2018-08-28T23:58:32.546Z,91.40
